createdAt,value
2023-05-14T00:01:32.291Z,17.60
2023-05-14T00:03:59.245Z,17.60
2023-05-14T00:06:26.328Z,17.60
2023-05-14T00:08:53.240Z,17.60
2023-05-14T00:11:20.905Z,17.60
2023-05-14T00:13:47.928Z,17.70
2023-05-14T00:16:14.940Z,17.70
2023-05-14T00:18:42.195Z,17.60
2023-05-14T00:21:09.223Z,17.60
2023-05-14T00:23:36.221Z,17.60
2023-05-14T00:26:03.483Z,17.60
2023-05-14T00:28:30.381Z,17.60
2023-05-14T00:30:57.368Z,17.60
2023-05-14T00:33:24.348Z,17.60
2023-05-14T00:35:51.687Z,17.60
2023-05-14T00:38:19.545Z,17.60
2023-05-14T00:40:51.236Z,17.50
2023-05-14T00:43:19.674Z,17.50
2023-05-14T00:45:48.044Z,17.50
2023-05-14T00:48:15.026Z,17.50
2023-05-14T00:50:42.843Z,17.50
2023-05-14T00:53:11.657Z,17.40
2023-05-14T00:55:40.512Z,17.50
2023-05-14T00:58:12.350Z,17.50
2023-05-14T01:00:40.326Z,17.50
2023-05-14T01:03:08.238Z,17.50
2023-05-14T01:05:58.903Z,17.50
2023-05-14T01:08:50.619Z,17.50
2023-05-14T01:11:44.220Z,17.60
2023-05-14T01:14:36.583Z,17.60
2023-05-14T01:17:06.368Z,17.50
2023-05-14T01:19:44.575Z,17.40
2023-05-14T01:22:12.473Z,17.40
2023-05-14T01:24:39.987Z,17.40
2023-05-14T01:27:13.330Z,17.40
2023-05-14T01:29:45.283Z,17.40
2023-05-14T01:32:15.419Z,17.40
2023-05-14T01:34:44.071Z,17.30
2023-05-14T01:37:12.759Z,17.30
2023-05-14T01:39:41.731Z,17.30
2023-05-14T01:42:09.907Z,17.30
2023-05-14T01:44:36.971Z,17.30
2023-05-14T01:47:04.063Z,17.30
2023-05-14T01:49:31.033Z,17.30
2023-05-14T01:51:57.939Z,17.30
2023-05-14T01:54:24.928Z,17.30
2023-05-14T01:56:51.871Z,17.20
2023-05-14T01:59:18.848Z,17.20
2023-05-14T02:01:45.956Z,17.20
2023-05-14T02:04:13.004Z,17.20
2023-05-14T02:06:41.909Z,17.20
2023-05-14T02:09:08.838Z,17.10
2023-05-14T02:11:35.791Z,17.10
2023-05-14T02:14:02.874Z,17.10
2023-05-14T02:16:29.938Z,17.10
2023-05-14T02:18:57.009Z,17.10
2023-05-14T02:21:24.511Z,17.10
2023-05-14T02:23:51.582Z,17.10
2023-05-14T02:26:18.687Z,17.10
2023-05-14T02:28:45.877Z,17.20
2023-05-14T02:31:14.430Z,17.20
2023-05-14T02:33:42.155Z,17.20
2023-05-14T02:36:09.216Z,17.20
2023-05-14T02:38:36.216Z,17.10
2023-05-14T02:41:03.270Z,17.10
2023-05-14T02:43:30.226Z,17.10
2023-05-14T02:45:57.127Z,17.10
2023-05-14T02:48:24.215Z,17.00
2023-05-14T02:50:52.140Z,17.00
2023-05-14T02:53:19.168Z,16.90
2023-05-14T02:55:46.221Z,16.80
2023-05-14T02:58:13.257Z,16.80
2023-05-14T03:00:40.329Z,16.70
2023-05-14T03:03:07.917Z,16.70
2023-05-14T03:05:35.258Z,16.70
2023-05-14T03:08:02.384Z,16.70
2023-05-14T03:10:29.369Z,16.60
2023-05-14T03:12:56.334Z,16.60
2023-05-14T03:15:23.320Z,16.60
2023-05-14T03:17:50.341Z,16.50
2023-05-14T03:20:17.477Z,16.40
2023-05-14T03:22:44.569Z,16.40
2023-05-14T03:25:11.602Z,16.40
2023-05-14T03:27:38.828Z,16.40
2023-05-14T03:30:06.412Z,16.40
2023-05-14T03:32:33.482Z,16.40
2023-05-14T03:35:00.544Z,16.40
2023-05-14T03:37:27.456Z,16.40
2023-05-14T03:39:54.389Z,16.40
2023-05-14T03:42:21.523Z,16.40
2023-05-14T03:44:48.451Z,16.40
2023-05-14T03:47:15.839Z,16.40
2023-05-14T03:49:42.849Z,16.40
2023-05-14T03:52:11.827Z,16.40
2023-05-14T03:54:38.829Z,16.40
2023-05-14T03:57:05.923Z,16.40
2023-05-14T03:59:32.961Z,16.40
2023-05-14T04:01:59.968Z,16.40
2023-05-14T04:04:26.977Z,16.40
2023-05-14T04:06:53.977Z,16.40
2023-05-14T04:09:20.968Z,16.30
2023-05-14T04:11:47.969Z,16.30
2023-05-14T04:14:15.064Z,16.30
2023-05-14T04:16:43.236Z,16.20
2023-05-14T04:19:11.209Z,16.30
2023-05-14T04:21:38.290Z,16.30
2023-05-14T04:24:05.567Z,16.30
2023-05-14T04:26:32.496Z,16.30
2023-05-14T04:29:02.941Z,16.20
2023-05-14T04:31:30.495Z,16.20
2023-05-14T04:33:57.489Z,16.10
2023-05-14T04:36:24.930Z,16.10
2023-05-14T04:38:51.902Z,16.10
2023-05-14T04:41:18.836Z,16.10
2023-05-14T04:43:47.259Z,16.00
2023-05-14T04:46:14.300Z,16.00
2023-05-14T04:48:41.828Z,15.90
2023-05-14T04:51:08.749Z,16.00
2023-05-14T04:53:35.747Z,16.00
2023-05-14T04:56:02.912Z,16.00
2023-05-14T04:58:33.749Z,16.00
2023-05-14T05:01:02.808Z,16.00
2023-05-14T05:03:29.889Z,15.90
2023-05-14T05:05:56.967Z,15.90
2023-05-14T05:08:24.052Z,15.90
2023-05-14T05:10:50.966Z,15.90
2023-05-14T05:13:17.841Z,15.90
2023-05-14T05:15:44.966Z,15.90
2023-05-14T05:18:11.951Z,15.90
2023-05-14T05:20:39.014Z,16.00
2023-05-14T05:23:06.023Z,16.00
2023-05-14T05:25:33.027Z,16.00
2023-05-14T05:28:00.008Z,16.00
2023-05-14T05:30:26.976Z,16.00
2023-05-14T05:32:54.105Z,16.00
2023-05-14T05:35:21.093Z,16.00
2023-05-14T05:37:48.069Z,16.00
2023-05-14T05:40:15.756Z,16.00
2023-05-14T05:42:42.837Z,16.00
2023-05-14T05:45:10.208Z,15.90
2023-05-14T05:47:37.190Z,15.90
2023-05-14T05:50:04.610Z,15.90
2023-05-14T05:52:31.644Z,15.90
2023-05-14T05:54:58.728Z,15.90
2023-05-14T05:57:27.177Z,15.90
2023-05-14T05:59:54.183Z,15.90
2023-05-14T06:02:21.231Z,15.90
2023-05-14T06:04:48.738Z,15.90
2023-05-14T06:07:15.671Z,15.90
2023-05-14T06:09:42.675Z,15.90
2023-05-14T06:12:09.752Z,15.90
2023-05-14T06:14:36.762Z,15.90
2023-05-14T06:17:03.782Z,16.00
2023-05-14T06:19:30.722Z,16.00
2023-05-14T06:21:57.700Z,16.00
2023-05-14T06:24:24.707Z,16.00
2023-05-14T06:26:51.753Z,16.00
2023-05-14T06:29:18.724Z,16.00
2023-05-14T06:31:46.505Z,16.10
2023-05-14T06:34:13.536Z,16.20
2023-05-14T06:36:40.725Z,16.20
2023-05-14T06:39:07.652Z,16.20
2023-05-14T06:41:34.574Z,16.30
2023-05-14T06:44:01.588Z,16.30
2023-05-14T06:46:28.518Z,16.30
2023-05-14T06:48:57.979Z,16.20
2023-05-14T06:51:26.336Z,16.30
2023-05-14T06:53:54.273Z,16.30
2023-05-14T06:56:22.107Z,16.40
2023-05-14T06:58:49.180Z,16.40
2023-05-14T07:01:16.917Z,16.40
2023-05-14T07:03:44.028Z,16.40
2023-05-14T07:06:12.512Z,16.50
2023-05-14T07:08:40.858Z,16.50
2023-05-14T07:11:07.831Z,16.60
2023-05-14T07:13:34.770Z,16.70
2023-05-14T07:16:01.700Z,16.70
2023-05-14T07:18:28.790Z,16.70
2023-05-14T07:20:55.756Z,16.70
2023-05-14T07:23:22.843Z,16.70
2023-05-14T07:25:49.781Z,16.70
2023-05-14T07:28:16.723Z,16.80
2023-05-14T07:30:43.718Z,16.80
2023-05-14T07:33:10.760Z,16.90
2023-05-14T07:35:37.730Z,16.90
2023-05-14T07:38:05.804Z,17.00
2023-05-14T07:40:32.809Z,17.00
2023-05-14T07:42:59.809Z,17.10
2023-05-14T07:45:26.772Z,17.20
2023-05-14T07:47:53.875Z,17.30
2023-05-14T07:50:21.135Z,17.40
2023-05-14T07:52:48.154Z,17.40
2023-05-14T07:55:15.224Z,17.50
2023-05-14T07:57:42.112Z,17.50
2023-05-14T08:00:09.405Z,17.60
2023-05-14T08:02:39.770Z,17.60
2023-05-14T08:05:07.283Z,17.70
2023-05-14T08:07:34.799Z,17.70
2023-05-14T08:10:02.010Z,17.70
2023-05-14T08:12:30.448Z,17.70
2023-05-14T08:14:57.362Z,17.70
2023-05-14T08:17:24.373Z,17.70
2023-05-14T08:19:51.369Z,17.60
2023-05-14T08:22:18.322Z,17.60
2023-05-14T08:24:45.254Z,17.60
2023-05-14T08:27:12.182Z,17.60
2023-05-14T08:29:39.171Z,17.70
2023-05-14T08:32:19.364Z,17.60
2023-05-14T08:34:50.118Z,17.60
2023-05-14T08:37:17.316Z,17.60
2023-05-14T08:39:44.496Z,17.70
2023-05-14T08:42:13.854Z,17.70
2023-05-14T08:45:02.587Z,17.70
2023-05-14T08:47:30.822Z,17.80
2023-05-14T08:50:06.503Z,17.80
2023-05-14T08:52:34.656Z,17.90
2023-05-14T08:55:05.285Z,17.90
2023-05-14T08:57:34.246Z,17.90
2023-05-14T09:00:08.190Z,17.90
2023-05-14T09:02:36.746Z,17.90
2023-05-14T09:05:04.307Z,17.90
2023-05-14T09:07:31.718Z,17.90
2023-05-14T09:09:59.219Z,17.90
2023-05-14T09:12:26.237Z,17.90
2023-05-14T09:14:53.393Z,17.90
2023-05-14T09:17:20.590Z,17.80
2023-05-14T09:19:52.949Z,17.80
2023-05-14T09:22:20.883Z,17.80
2023-05-14T09:25:03.539Z,17.80
2023-05-14T09:27:32.040Z,17.90
2023-05-14T09:30:13.149Z,17.90
2023-05-14T09:32:44.262Z,18.00
2023-05-14T09:35:18.989Z,18.00
2023-05-14T09:37:55.661Z,18.00
2023-05-14T09:40:24.320Z,18.20
2023-05-14T09:42:51.818Z,18.20
2023-05-14T09:45:18.929Z,18.30
2023-05-14T09:47:46.094Z,18.30
2023-05-14T09:50:13.537Z,18.40
2023-05-14T09:52:40.622Z,18.50
2023-05-14T09:55:08.261Z,18.50
2023-05-14T09:57:35.434Z,18.50
2023-05-14T10:00:02.489Z,18.60
2023-05-14T10:02:38.780Z,18.70
2023-05-14T10:05:06.889Z,18.70
2023-05-14T10:07:38.803Z,18.80
2023-05-14T10:10:08.695Z,18.90
2023-05-14T10:12:40.575Z,19.00
2023-05-14T10:15:16.588Z,19.00
2023-05-14T10:17:49.444Z,19.10
2023-05-14T10:20:17.454Z,19.20
2023-05-14T10:22:45.040Z,19.20
2023-05-14T10:25:12.564Z,19.20
2023-05-14T10:27:40.346Z,19.20
2023-05-14T10:30:12.721Z,19.10
2023-05-14T10:32:41.937Z,19.10
2023-05-14T10:35:25.416Z,19.10
2023-05-14T10:37:52.480Z,19.00
2023-05-14T10:40:23.612Z,19.00
2023-05-14T10:42:50.860Z,19.00
2023-05-14T10:45:17.867Z,18.90
2023-05-14T10:47:47.370Z,18.90
2023-05-14T10:50:15.709Z,18.80
2023-05-14T10:52:44.029Z,18.80
2023-05-14T10:55:14.583Z,18.80
2023-05-14T10:57:44.149Z,18.80
2023-05-14T11:00:12.561Z,18.80
2023-05-14T11:02:41.465Z,18.80
2023-05-14T11:05:11.611Z,18.80
2023-05-14T11:07:42.748Z,18.90
2023-05-14T11:10:15.247Z,18.90
2023-05-14T11:12:44.345Z,19.00
2023-05-14T11:15:22.300Z,19.10
2023-05-14T11:17:50.410Z,19.20
2023-05-14T11:20:18.254Z,19.30
2023-05-14T11:22:46.639Z,19.40
2023-05-14T11:25:14.902Z,19.40
2023-05-14T11:27:44.376Z,19.40
2023-05-14T11:30:19.455Z,19.40
2023-05-14T11:32:47.843Z,19.40
2023-05-14T11:35:15.470Z,19.30
2023-05-14T11:37:43.218Z,19.30
2023-05-14T11:40:16.872Z,19.40
2023-05-14T11:42:44.325Z,19.40
2023-05-14T11:45:12.595Z,19.40
2023-05-14T11:47:41.331Z,19.50
2023-05-14T11:50:09.545Z,19.50
2023-05-14T11:52:41.482Z,19.70
2023-05-14T11:55:12.841Z,19.80
2023-05-14T11:57:41.170Z,19.80
2023-05-14T12:00:21.378Z,19.90
2023-05-14T12:02:49.844Z,19.90
2023-05-14T12:05:17.255Z,20.00
2023-05-14T12:07:47.864Z,20.10
2023-05-14T12:10:15.461Z,20.10
2023-05-14T12:12:47.117Z,20.10
2023-05-14T12:15:15.256Z,20.20
2023-05-14T12:17:42.444Z,20.20
2023-05-14T12:20:11.034Z,20.30
2023-05-14T12:22:38.425Z,20.30
2023-05-14T12:25:12.692Z,20.30
2023-05-14T12:27:39.624Z,20.30
2023-05-14T12:32:41.056Z,20.40
2023-05-14T12:35:09.192Z,20.40
2023-05-14T12:37:37.465Z,20.50
2023-05-14T12:40:09.218Z,20.50
2023-05-14T12:42:36.597Z,20.50
2023-05-14T12:45:08.120Z,20.50
2023-05-14T12:47:36.498Z,20.50
2023-05-14T12:50:04.710Z,20.50
2023-05-14T12:52:38.718Z,20.40
2023-05-14T12:55:08.207Z,20.40
2023-05-14T12:57:35.726Z,20.40
2023-05-14T13:00:06.987Z,20.40
2023-05-14T13:02:43.007Z,20.40
2023-05-14T13:05:11.985Z,20.50
2023-05-14T13:07:39.233Z,20.50
2023-05-14T13:10:06.822Z,20.60
2023-05-14T13:12:33.992Z,20.60
2023-05-14T13:15:01.219Z,20.60
2023-05-14T13:17:28.287Z,20.70
2023-05-14T13:19:55.190Z,20.80
2023-05-14T13:22:22.089Z,20.80
2023-05-14T13:24:49.023Z,20.90
2023-05-14T13:27:16.187Z,20.90
2023-05-14T13:29:43.104Z,21.00
2023-05-14T13:32:10.392Z,21.00
2023-05-14T13:34:37.384Z,21.10
2023-05-14T13:37:04.527Z,21.20
2023-05-14T13:39:31.503Z,21.20
2023-05-14T13:41:58.436Z,21.20
2023-05-14T13:44:25.625Z,21.20
2023-05-14T13:46:52.857Z,21.30
2023-05-14T13:49:19.853Z,21.40
2023-05-14T13:51:46.805Z,21.40
2023-05-14T13:54:13.755Z,21.40
2023-05-14T13:56:40.747Z,21.40
2023-05-14T13:59:07.786Z,21.50
2023-05-14T14:01:34.734Z,21.50
2023-05-14T14:04:01.832Z,21.50
2023-05-14T14:06:31.338Z,21.50
2023-05-14T14:08:58.281Z,21.60
2023-05-14T14:11:25.584Z,21.70
2023-05-14T14:13:52.739Z,21.90
2023-05-14T14:16:19.656Z,22.00
2023-05-14T14:18:46.738Z,22.10
2023-05-14T14:21:14.311Z,22.10
2023-05-14T14:23:41.575Z,22.00
2023-05-14T14:26:08.609Z,21.90
2023-05-14T14:28:35.704Z,21.80
2023-05-14T14:31:03.008Z,21.70
2023-05-14T14:33:30.002Z,21.60
2023-05-14T14:35:57.087Z,21.50
2023-05-14T14:38:24.941Z,21.50
2023-05-14T14:40:51.973Z,21.40
2023-05-14T14:43:18.905Z,21.30
2023-05-14T14:45:48.228Z,21.30
2023-05-14T14:48:44.045Z,21.20
2023-05-14T14:51:11.377Z,21.10
2023-05-14T14:53:38.498Z,21.00
2023-05-14T14:56:05.932Z,21.00
2023-05-14T14:58:32.971Z,20.90
2023-05-14T15:01:01.286Z,20.90
2023-05-14T15:03:29.011Z,20.80
2023-05-14T15:05:56.080Z,20.80
2023-05-14T15:08:29.221Z,20.80
2023-05-14T15:10:56.998Z,20.70
2023-05-14T15:13:24.783Z,20.70
2023-05-14T15:15:52.560Z,20.70
2023-05-14T15:18:27.031Z,20.70
2023-05-14T15:20:54.070Z,20.70
2023-05-14T15:23:20.994Z,20.60
2023-05-14T15:25:49.377Z,20.60
2023-05-14T15:28:16.408Z,20.60
2023-05-14T15:30:43.406Z,20.50
2023-05-14T15:33:10.985Z,20.40
2023-05-14T15:35:38.091Z,20.30
2023-05-14T15:38:05.166Z,20.20
2023-05-14T15:40:33.270Z,20.10
2023-05-14T15:43:00.200Z,20.00
2023-05-14T15:45:27.080Z,19.80
2023-05-14T15:47:54.352Z,19.80
2023-05-14T15:50:21.873Z,19.70
2023-05-14T15:52:49.135Z,19.60
2023-05-14T15:55:16.115Z,19.50
2023-05-14T15:57:43.069Z,19.50
2023-05-14T16:00:11.035Z,19.40
2023-05-14T16:02:39.878Z,19.30
2023-05-14T16:05:08.275Z,19.20
2023-05-14T16:07:35.835Z,19.20
2023-05-14T16:10:03.295Z,19.10
2023-05-14T16:12:30.725Z,19.10
2023-05-14T16:14:57.816Z,19.10
2023-05-14T16:17:26.028Z,19.00
2023-05-14T16:19:54.651Z,19.00
2023-05-14T16:22:23.114Z,18.90
2023-05-14T16:24:50.019Z,18.90
2023-05-14T16:27:19.149Z,18.90
2023-05-14T16:29:46.148Z,18.90
2023-05-14T16:32:13.336Z,18.90
2023-05-14T16:34:40.608Z,18.90
2023-05-14T16:37:08.002Z,18.90
2023-05-14T16:39:34.893Z,18.90
2023-05-14T16:42:01.850Z,18.90
2023-05-14T16:44:28.861Z,18.80
2023-05-14T16:46:56.397Z,18.80
2023-05-14T16:49:23.422Z,18.80
2023-05-14T16:51:50.455Z,18.80
2023-05-14T16:54:17.429Z,18.80
2023-05-14T16:56:48.140Z,18.80
2023-05-14T16:59:16.532Z,18.80
2023-05-14T17:01:44.283Z,18.80
2023-05-14T17:04:11.397Z,18.90
2023-05-14T17:06:38.441Z,18.80
2023-05-14T17:09:05.552Z,18.90
2023-05-14T17:11:32.703Z,18.90
2023-05-14T17:13:59.773Z,18.80
2023-05-14T17:16:27.191Z,18.80
2023-05-14T17:18:54.201Z,18.90
2023-05-14T17:21:21.368Z,18.90
2023-05-14T17:23:48.304Z,18.90
2023-05-14T17:26:15.294Z,18.90
2023-05-14T17:28:42.235Z,18.90
2023-05-14T17:31:09.227Z,19.00
2023-05-14T17:33:36.207Z,18.90
2023-05-14T17:36:03.484Z,18.90
2023-05-14T17:38:30.638Z,18.80
2023-05-14T17:40:57.620Z,18.80
2023-05-14T17:43:24.785Z,18.70
2023-05-14T17:45:54.371Z,18.70
2023-05-14T17:48:23.148Z,18.60
2023-05-14T17:50:51.622Z,18.60
2023-05-14T17:53:18.786Z,18.50
2023-05-14T17:55:45.870Z,18.50
2023-05-14T17:58:15.242Z,18.50
2023-05-14T18:00:43.471Z,18.40
2023-05-14T18:03:11.332Z,18.40
2023-05-14T18:05:38.475Z,18.40
2023-05-14T18:08:05.801Z,18.40
2023-05-14T18:10:32.880Z,18.40
2023-05-14T18:12:59.859Z,18.30
2023-05-14T18:15:27.416Z,18.30
2023-05-14T18:17:54.647Z,18.30
2023-05-14T18:20:21.873Z,18.20
2023-05-14T18:22:50.503Z,18.20
2023-05-14T18:25:17.540Z,18.20
2023-05-14T18:27:45.301Z,18.10
2023-05-14T18:30:17.017Z,18.10
2023-05-14T18:32:45.034Z,18.10
2023-05-14T18:35:13.685Z,18.00
2023-05-14T18:37:41.028Z,18.00
2023-05-14T18:40:09.757Z,18.00
2023-05-14T18:42:36.734Z,18.00
2023-05-14T18:45:04.380Z,17.90
2023-05-14T18:47:33.615Z,17.90
2023-05-14T18:50:02.039Z,17.80
2023-05-14T18:52:29.521Z,17.80
2023-05-14T18:54:56.647Z,17.70
2023-05-14T18:57:23.695Z,17.70
2023-05-14T18:59:51.834Z,17.60
2023-05-14T19:02:18.899Z,17.60
2023-05-14T19:07:16.074Z,17.60
2023-05-14T19:09:43.055Z,17.50
2023-05-14T19:12:10.121Z,17.50
2023-05-14T19:14:37.204Z,17.50
2023-05-14T19:17:04.838Z,17.50
2023-05-14T19:19:32.132Z,17.50
2023-05-14T19:21:59.149Z,17.50
2023-05-14T19:24:26.225Z,17.40
2023-05-14T19:26:53.329Z,17.40
2023-05-14T19:29:20.425Z,17.50
2023-05-14T19:31:47.501Z,17.50
2023-05-14T19:34:14.627Z,17.40
2023-05-14T19:36:42.163Z,17.40
2023-05-14T19:39:09.661Z,17.40
2023-05-14T19:41:36.680Z,17.30
2023-05-14T19:44:03.725Z,17.30
2023-05-14T19:46:30.869Z,17.30
2023-05-14T19:48:57.886Z,17.20
2023-05-14T19:51:25.415Z,17.20
2023-05-14T19:53:52.402Z,17.20
2023-05-14T19:56:19.451Z,17.20
2023-05-14T19:58:46.439Z,17.20
2023-05-14T20:01:14.488Z,17.10
2023-05-14T20:03:41.872Z,17.10
2023-05-14T20:06:08.962Z,17.10
2023-05-14T20:08:35.933Z,17.10
2023-05-14T20:11:03.285Z,17.10
2023-05-14T20:13:35.458Z,17.20
2023-05-14T20:16:02.630Z,17.10
2023-05-14T20:18:29.795Z,17.10
2023-05-14T20:20:56.950Z,17.10
2023-05-14T20:23:24.048Z,17.10
2023-05-14T20:25:51.705Z,17.00
2023-05-14T20:28:18.760Z,17.00
2023-05-14T20:30:45.845Z,17.00
2023-05-14T20:33:13.853Z,17.00
2023-05-14T20:35:43.882Z,17.10
2023-05-14T20:38:12.769Z,17.00
2023-05-14T20:40:40.368Z,17.00
2023-05-14T20:43:07.391Z,16.90
2023-05-14T20:45:34.420Z,16.90
2023-05-14T20:48:01.501Z,17.00
2023-05-14T20:50:28.462Z,16.90
2023-05-14T20:52:55.737Z,16.90
2023-05-14T20:55:23.201Z,16.90
2023-05-14T20:57:50.576Z,16.90
2023-05-14T21:00:18.252Z,16.90
2023-05-14T21:02:45.662Z,16.90
2023-05-14T21:05:14.011Z,16.90
2023-05-14T21:07:41.110Z,16.90
2023-05-14T21:10:11.267Z,16.90
2023-05-14T21:12:38.243Z,16.80
2023-05-14T21:15:05.702Z,16.80
2023-05-14T21:17:32.763Z,16.80
2023-05-14T21:19:59.827Z,16.80
2023-05-14T21:22:27.529Z,16.80
2023-05-14T21:24:55.632Z,16.70
2023-05-14T21:27:23.032Z,16.70
2023-05-14T21:29:49.979Z,16.70
2023-05-14T21:32:17.115Z,16.70
2023-05-14T21:34:44.361Z,16.60
2023-05-14T21:37:11.372Z,16.60
2023-05-14T21:39:38.324Z,16.60
2023-05-14T21:42:05.501Z,16.60
2023-05-14T21:44:32.480Z,16.50
2023-05-14T21:46:59.638Z,16.50
2023-05-14T21:49:26.598Z,16.50
2023-05-14T21:51:54.553Z,16.50
2023-05-14T21:54:21.593Z,16.50
2023-05-14T21:56:48.684Z,16.50
2023-05-14T21:59:15.740Z,16.50
2023-05-14T22:01:56.102Z,16.50
2023-05-14T22:04:30.032Z,16.50
2023-05-14T22:06:56.985Z,16.50
2023-05-14T22:09:24.008Z,16.50
2023-05-14T22:11:50.895Z,16.50
2023-05-14T22:14:18.124Z,16.50
2023-05-14T22:16:45.253Z,16.50
2023-05-14T22:19:12.287Z,16.50
2023-05-14T22:21:39.410Z,16.50
2023-05-14T22:24:06.642Z,16.50
2023-05-14T22:26:34.379Z,16.50
2023-05-14T22:29:01.288Z,16.60
2023-05-14T22:31:28.282Z,16.60
2023-05-14T22:33:55.304Z,16.50
2023-05-14T22:36:22.306Z,16.50
2023-05-14T22:38:49.255Z,16.50
2023-05-14T22:41:17.557Z,16.40
2023-05-14T22:43:44.502Z,16.40
2023-05-14T22:46:11.473Z,16.40
2023-05-14T22:48:38.396Z,16.50
2023-05-14T22:51:05.529Z,16.50
2023-05-14T22:53:32.420Z,16.40
2023-05-14T22:55:59.461Z,16.40
2023-05-14T22:58:26.382Z,16.50
2023-05-14T23:00:53.286Z,16.50
2023-05-14T23:03:20.312Z,16.40
2023-05-14T23:05:47.255Z,16.40
2023-05-14T23:08:14.325Z,16.40
2023-05-14T23:10:41.322Z,16.40
2023-05-14T23:13:08.259Z,16.40
2023-05-14T23:15:35.216Z,16.40
2023-05-14T23:18:02.496Z,16.30
2023-05-14T23:20:29.527Z,16.40
2023-05-14T23:22:56.512Z,16.40
2023-05-14T23:25:23.524Z,16.30
2023-05-14T23:27:53.754Z,16.40
2023-05-14T23:30:20.850Z,16.40
2023-05-14T23:32:47.820Z,16.40
2023-05-14T23:35:14.831Z,16.30
2023-05-14T23:37:47.091Z,16.30
2023-05-14T23:40:15.538Z,16.40
2023-05-14T23:42:42.762Z,16.40
2023-05-14T23:45:10.188Z,16.40
2023-05-14T23:47:37.334Z,16.30
2023-05-14T23:50:04.759Z,16.40
2023-05-14T23:52:31.752Z,16.40
2023-05-14T23:54:58.684Z,16.40
2023-05-14T23:57:27.234Z,16.40
2023-05-14T23:59:54.137Z,16.40
